createdAt,value
2016-10-28T00:00:04.991Z,0
2016-10-28T00:00:37.340Z,0
2016-10-28T00:01:10.691Z,0
2016-10-28T00:01:43.006Z,0
2016-10-28T00:02:15.332Z,0
2016-10-28T00:02:47.679Z,0
2016-10-28T00:03:20.012Z,0
2016-10-28T00:03:52.334Z,0
2016-10-28T00:04:24.704Z,0
2016-10-28T00:04:57.028Z,0
2016-10-28T00:05:29.352Z,0
2016-10-28T00:06:01.666Z,0
2016-10-28T00:06:34.018Z,0
2016-10-28T00:07:06.344Z,0
2016-10-28T00:07:38.657Z,0
2016-10-28T00:08:10.959Z,0
2016-10-28T00:08:43.273Z,0
2016-10-28T00:09:15.620Z,0
2016-10-28T00:09:47.943Z,0
2016-10-28T00:10:20.247Z,0
2016-10-28T00:10:52.568Z,0
2016-10-28T00:11:24.893Z,0
2016-10-28T00:11:57.212Z,0
2016-10-28T00:12:29.545Z,0
2016-10-28T00:13:01.875Z,0
2016-10-28T00:13:34.190Z,0
2016-10-28T00:14:06.511Z,0
2016-10-28T00:14:38.832Z,0
2016-10-28T00:15:11.126Z,0
2016-10-28T00:15:43.468Z,0
2016-10-28T00:16:15.787Z,0
2016-10-28T00:16:48.113Z,0
2016-10-28T00:17:20.411Z,0
2016-10-28T00:17:52.738Z,0
2016-10-28T00:18:25.073Z,0
2016-10-28T00:18:57.404Z,0
2016-10-28T00:19:29.723Z,0
2016-10-28T00:20:02.039Z,0
2016-10-28T00:20:34.359Z,0
2016-10-28T00:21:06.689Z,0
2016-10-28T00:21:39.009Z,0
2016-10-28T00:22:11.311Z,0
2016-10-28T00:22:43.636Z,0
2016-10-28T00:23:15.975Z,0
2016-10-28T00:23:48.294Z,0
2016-10-28T00:24:20.632Z,0
2016-10-28T00:24:52.958Z,0
2016-10-28T00:25:25.280Z,0
2016-10-28T00:25:57.606Z,0
2016-10-28T00:26:29.930Z,0
2016-10-28T00:27:02.247Z,0
2016-10-28T00:27:34.569Z,0
2016-10-28T00:28:06.896Z,0
2016-10-28T00:28:39.261Z,0
2016-10-28T00:29:11.594Z,0
2016-10-28T00:29:43.920Z,0
2016-10-28T00:30:16.287Z,0
2016-10-28T00:30:48.596Z,0
2016-10-28T00:31:20.919Z,0
2016-10-28T00:31:53.250Z,0
2016-10-28T00:32:25.576Z,0
2016-10-28T00:32:57.917Z,0
2016-10-28T00:33:30.268Z,0
2016-10-28T00:34:02.594Z,0
2016-10-28T00:34:34.939Z,0
2016-10-28T00:35:07.273Z,0
2016-10-28T00:35:39.596Z,0
2016-10-28T00:36:11.929Z,0
2016-10-28T00:36:44.253Z,0
2016-10-28T00:37:16.594Z,0
2016-10-28T00:37:48.925Z,0
2016-10-28T00:38:21.269Z,0
2016-10-28T00:38:53.630Z,0
2016-10-28T00:39:25.939Z,0
2016-10-28T00:39:58.253Z,0
2016-10-28T00:40:30.561Z,0
2016-10-28T00:41:02.869Z,0
2016-10-28T00:41:35.191Z,0
2016-10-28T00:42:07.567Z,0
2016-10-28T00:42:39.908Z,0
2016-10-28T00:43:12.233Z,0
2016-10-28T00:43:44.580Z,0
2016-10-28T00:44:16.947Z,0
2016-10-28T00:44:49.279Z,0
2016-10-28T00:45:21.613Z,0
2016-10-28T00:45:53.930Z,0
2016-10-28T00:46:26.272Z,0
2016-10-28T00:46:58.611Z,0
2016-10-28T00:47:30.936Z,0
2016-10-28T00:48:03.286Z,0
2016-10-28T00:48:35.636Z,0
2016-10-28T00:49:07.971Z,0
2016-10-28T00:49:40.306Z,0
2016-10-28T00:50:12.618Z,0
2016-10-28T00:50:44.939Z,0
2016-10-28T00:51:17.310Z,0
2016-10-28T00:51:49.637Z,0
2016-10-28T00:52:22.004Z,0
2016-10-28T00:52:54.329Z,0
2016-10-28T00:53:26.662Z,0
2016-10-28T00:53:58.993Z,0
2016-10-28T00:54:31.312Z,0
2016-10-28T00:55:03.632Z,0
2016-10-28T00:55:35.973Z,0
2016-10-28T00:56:08.292Z,0
2016-10-28T00:56:40.607Z,0
2016-10-28T00:57:12.922Z,0
2016-10-28T00:57:45.236Z,0
2016-10-28T00:58:17.549Z,0
2016-10-28T00:58:49.875Z,0
2016-10-28T00:59:22.234Z,0
2016-10-28T00:59:54.554Z,0
2016-10-28T01:00:26.879Z,0
2016-10-28T01:00:59.195Z,0
2016-10-28T01:01:31.526Z,0
2016-10-28T01:02:03.872Z,0
2016-10-28T01:02:36.203Z,0
2016-10-28T01:03:08.536Z,0
2016-10-28T01:03:40.866Z,0
2016-10-28T01:04:13.197Z,0
2016-10-28T01:04:45.519Z,0
2016-10-28T01:05:17.848Z,0
2016-10-28T01:05:50.166Z,0
2016-10-28T01:06:22.479Z,0
2016-10-28T01:06:54.789Z,0
2016-10-28T01:07:27.107Z,0
2016-10-28T01:07:59.423Z,0
2016-10-28T01:08:31.728Z,0
2016-10-28T01:09:04.045Z,0
2016-10-28T01:09:36.387Z,0
2016-10-28T01:10:08.693Z,0
2016-10-28T01:10:41.012Z,0
2016-10-28T01:11:13.333Z,0
2016-10-28T01:11:45.658Z,0
2016-10-28T01:12:17.979Z,0
2016-10-28T01:12:51.191Z,0
2016-10-28T01:13:23.520Z,0
2016-10-28T01:13:55.896Z,0
2016-10-28T01:14:28.269Z,0
2016-10-28T01:15:00.605Z,0
2016-10-28T01:15:32.936Z,0
2016-10-28T01:16:05.253Z,0
2016-10-28T01:16:37.591Z,0
2016-10-28T01:17:09.914Z,0
2016-10-28T01:17:42.318Z,0
2016-10-28T01:18:14.673Z,0
2016-10-28T01:18:46.998Z,0
2016-10-28T01:19:19.334Z,0
2016-10-28T01:19:52.161Z,0
2016-10-28T01:20:24.492Z,0
2016-10-28T01:20:56.808Z,0
2016-10-28T01:21:29.127Z,0
2016-10-28T01:22:01.447Z,0
2016-10-28T01:22:33.782Z,0
2016-10-28T01:23:06.115Z,0
2016-10-28T01:23:38.465Z,0
2016-10-28T01:24:10.784Z,0
2016-10-28T01:24:43.101Z,0
2016-10-28T01:25:15.455Z,0
2016-10-28T01:25:47.784Z,0
2016-10-28T01:26:20.101Z,0
2016-10-28T01:26:52.432Z,0
2016-10-28T01:27:24.750Z,0
2016-10-28T01:27:57.071Z,0
2016-10-28T01:28:29.402Z,0
2016-10-28T01:29:01.714Z,0
2016-10-28T01:29:34.068Z,0
2016-10-28T01:30:06.387Z,0
2016-10-28T01:30:38.705Z,0
2016-10-28T01:31:11.020Z,0
2016-10-28T01:31:43.333Z,0
2016-10-28T01:32:15.638Z,0
2016-10-28T01:32:47.964Z,0
2016-10-28T01:33:20.290Z,0
2016-10-28T01:33:52.654Z,0
2016-10-28T01:34:24.987Z,0
2016-10-28T01:34:57.302Z,0
2016-10-28T01:35:29.619Z,0
2016-10-28T01:36:01.975Z,0
2016-10-28T01:36:34.319Z,0
2016-10-28T01:37:06.655Z,0
2016-10-28T01:37:38.977Z,0
2016-10-28T01:38:11.338Z,0
2016-10-28T01:38:43.676Z,0
2016-10-28T01:39:15.994Z,0
2016-10-28T01:39:48.333Z,0
2016-10-28T01:40:20.650Z,0
2016-10-28T01:40:52.976Z,0
2016-10-28T01:41:25.335Z,0
2016-10-28T01:41:57.644Z,0
2016-10-28T01:42:30.004Z,0
2016-10-28T01:43:02.327Z,0
2016-10-28T01:43:34.654Z,0
2016-10-28T01:44:07.013Z,0
2016-10-28T01:44:39.335Z,0
2016-10-28T01:45:11.689Z,0
2016-10-28T01:45:44.008Z,0
2016-10-28T01:46:16.368Z,0
2016-10-28T01:46:48.683Z,0
2016-10-28T01:47:21.002Z,0
2016-10-28T01:47:53.316Z,0
2016-10-28T01:48:25.659Z,0
2016-10-28T01:48:57.989Z,0
2016-10-28T01:49:30.304Z,0
2016-10-28T01:50:02.619Z,0
2016-10-28T01:50:34.933Z,0
2016-10-28T01:51:07.253Z,0
2016-10-28T01:51:39.568Z,0
2016-10-28T01:52:11.896Z,0
2016-10-28T01:52:44.227Z,0
2016-10-28T01:53:16.542Z,0
2016-10-28T01:53:48.874Z,0
2016-10-28T01:54:21.201Z,0
2016-10-28T01:54:53.506Z,0
2016-10-28T01:55:25.827Z,0
2016-10-28T01:55:58.144Z,0
2016-10-28T01:56:30.468Z,0
2016-10-28T01:57:02.779Z,0
2016-10-28T01:57:35.113Z,0
2016-10-28T01:58:07.445Z,0
2016-10-28T01:58:39.755Z,0
2016-10-28T01:59:12.078Z,0
2016-10-28T01:59:44.414Z,0
2016-10-28T02:00:16.752Z,0
2016-10-28T02:00:49.086Z,0
2016-10-28T02:01:21.390Z,0
2016-10-28T02:01:53.752Z,0
2016-10-28T02:02:26.076Z,0
2016-10-28T02:02:58.395Z,0
2016-10-28T02:03:30.719Z,0
2016-10-28T02:04:03.029Z,0
2016-10-28T02:04:35.346Z,0
2016-10-28T02:05:07.663Z,0
2016-10-28T02:05:39.980Z,0
2016-10-28T02:06:12.296Z,0
2016-10-28T02:06:44.629Z,0
2016-10-28T02:07:16.945Z,0
2016-10-28T02:07:49.267Z,0
2016-10-28T02:08:21.597Z,0
2016-10-28T02:08:53.914Z,0
2016-10-28T02:09:26.238Z,0
2016-10-28T02:09:58.554Z,0
2016-10-28T02:10:30.875Z,0
2016-10-28T02:11:03.251Z,0
2016-10-28T02:11:35.565Z,0
2016-10-28T02:12:07.886Z,0
2016-10-28T02:12:40.197Z,0
2016-10-28T02:13:12.526Z,0
2016-10-28T02:13:44.892Z,0
2016-10-28T02:14:17.217Z,0
2016-10-28T02:14:49.530Z,0
2016-10-28T02:15:21.863Z,0
2016-10-28T02:15:54.232Z,0
2016-10-28T02:16:26.608Z,0
2016-10-28T02:16:58.970Z,0
2016-10-28T02:17:31.324Z,0
2016-10-28T02:18:03.706Z,0
2016-10-28T02:18:36.027Z,0
2016-10-28T02:19:08.351Z,0
2016-10-28T02:19:40.678Z,0
2016-10-28T02:20:13.046Z,0
2016-10-28T02:20:45.404Z,0
2016-10-28T02:21:17.731Z,0
2016-10-28T02:21:50.051Z,0
2016-10-28T02:22:22.392Z,0
2016-10-28T02:22:54.740Z,0
2016-10-28T02:23:27.069Z,0
2016-10-28T02:23:59.416Z,0
2016-10-28T02:24:31.766Z,0
2016-10-28T02:25:04.079Z,0
2016-10-28T02:25:36.412Z,0
2016-10-28T02:26:08.718Z,0
2016-10-28T02:26:41.025Z,0
2016-10-28T02:27:13.345Z,0
2016-10-28T02:27:45.701Z,0
2016-10-28T02:28:18.013Z,0
2016-10-28T02:28:50.326Z,0
2016-10-28T02:29:22.678Z,0
2016-10-28T02:29:55.003Z,0
2016-10-28T02:30:27.316Z,0
2016-10-28T02:30:59.636Z,0
2016-10-28T02:31:31.964Z,0
2016-10-28T02:32:04.289Z,0
2016-10-28T02:32:36.607Z,0
2016-10-28T02:33:08.918Z,0
2016-10-28T02:33:41.231Z,0
2016-10-28T02:34:13.542Z,0
2016-10-28T02:34:45.862Z,0
2016-10-28T02:35:18.174Z,0
2016-10-28T02:35:50.487Z,0
2016-10-28T02:36:22.848Z,0
2016-10-28T02:36:55.190Z,0
2016-10-28T02:37:27.495Z,0
2016-10-28T02:37:59.823Z,0
2016-10-28T02:38:32.134Z,0
2016-10-28T02:39:04.475Z,0
2016-10-28T02:39:36.854Z,0
2016-10-28T02:40:09.183Z,0
2016-10-28T02:40:41.522Z,0
2016-10-28T02:41:13.837Z,0
2016-10-28T02:41:46.149Z,0
2016-10-28T02:42:18.474Z,0
2016-10-28T02:42:50.790Z,0
2016-10-28T02:43:23.104Z,0
2016-10-28T02:43:55.410Z,0
2016-10-28T02:44:27.728Z,0
2016-10-28T02:45:00.057Z,0
2016-10-28T02:45:32.375Z,0
2016-10-28T02:46:04.703Z,0
2016-10-28T02:46:37.067Z,0
2016-10-28T02:47:09.399Z,0
2016-10-28T02:47:41.765Z,0
2016-10-28T02:48:14.090Z,0
2016-10-28T02:48:46.388Z,0
2016-10-28T02:49:18.713Z,0
2016-10-28T02:49:51.035Z,0
2016-10-28T02:50:23.377Z,0
2016-10-28T02:50:55.688Z,0
2016-10-28T02:51:28.007Z,0
2016-10-28T02:52:00.330Z,0
2016-10-28T02:52:32.675Z,0
2016-10-28T02:53:04.993Z,0
2016-10-28T02:53:37.325Z,0
2016-10-28T02:54:09.645Z,0
2016-10-28T02:54:41.952Z,0
2016-10-28T02:55:14.272Z,0
2016-10-28T02:55:46.593Z,0
2016-10-28T02:56:18.916Z,0
2016-10-28T02:56:51.226Z,0
2016-10-28T02:57:23.549Z,0
2016-10-28T02:57:55.872Z,0
2016-10-28T02:58:29.283Z,0
2016-10-28T02:59:01.597Z,0
2016-10-28T02:59:33.909Z,0
2016-10-28T03:00:06.226Z,0
2016-10-28T03:00:38.542Z,0
2016-10-28T03:01:10.861Z,0
2016-10-28T03:01:43.182Z,0
2016-10-28T03:02:15.509Z,0
2016-10-28T03:02:47.875Z,0
2016-10-28T03:03:20.201Z,0
2016-10-28T03:03:52.524Z,0
2016-10-28T03:04:24.831Z,0
2016-10-28T03:04:57.161Z,0
2016-10-28T03:05:29.490Z,0
2016-10-28T03:06:01.804Z,0
2016-10-28T03:06:34.132Z,0
2016-10-28T03:07:06.457Z,0
2016-10-28T03:07:38.792Z,0
2016-10-28T03:08:11.140Z,0
2016-10-28T03:08:43.511Z,0
2016-10-28T03:09:15.815Z,0
2016-10-28T03:09:48.149Z,0
2016-10-28T03:10:20.475Z,0
2016-10-28T03:10:52.788Z,0
2016-10-28T03:11:25.098Z,0
2016-10-28T03:11:57.421Z,0
2016-10-28T03:12:29.737Z,0
2016-10-28T03:13:02.065Z,0
2016-10-28T03:13:34.384Z,0
2016-10-28T03:14:06.699Z,0
2016-10-28T03:14:39.013Z,0
2016-10-28T03:15:11.338Z,0
2016-10-28T03:15:43.657Z,0
2016-10-28T03:16:15.973Z,0
2016-10-28T03:16:48.290Z,0
2016-10-28T03:17:20.592Z,0
2016-10-28T03:17:52.920Z,0
2016-10-28T03:18:25.253Z,0
2016-10-28T03:18:57.603Z,0
2016-10-28T03:19:29.937Z,0
2016-10-28T03:20:02.287Z,0
2016-10-28T03:20:34.619Z,0
2016-10-28T03:21:06.955Z,0
2016-10-28T03:21:39.277Z,0
2016-10-28T03:22:11.603Z,0
2016-10-28T03:22:43.942Z,0
2016-10-28T03:23:16.255Z,0
2016-10-28T03:23:48.575Z,0
2016-10-28T03:24:20.905Z,0
2016-10-28T03:24:53.225Z,0
2016-10-28T03:25:25.584Z,0
2016-10-28T03:25:57.910Z,0
2016-10-28T03:26:30.275Z,0
2016-10-28T03:27:02.574Z,0
2016-10-28T03:27:34.924Z,0
2016-10-28T03:28:07.243Z,0
2016-10-28T03:28:39.554Z,0
2016-10-28T03:29:11.903Z,0
2016-10-28T03:29:44.200Z,0
2016-10-28T03:30:16.536Z,0
2016-10-28T03:30:48.846Z,0
2016-10-28T03:31:21.166Z,0
2016-10-28T03:31:53.520Z,0
2016-10-28T03:32:25.859Z,0
2016-10-28T03:32:58.223Z,0
2016-10-28T03:33:30.560Z,0
2016-10-28T03:34:02.872Z,0
2016-10-28T03:34:35.183Z,0
2016-10-28T03:35:07.515Z,0
2016-10-28T03:35:39.835Z,0
2016-10-28T03:36:12.198Z,0
2016-10-28T03:36:44.517Z,0
2016-10-28T03:37:16.855Z,0
2016-10-28T03:37:49.187Z,0
2016-10-28T03:38:21.507Z,0
2016-10-28T03:38:53.827Z,0
2016-10-28T03:39:26.136Z,0
2016-10-28T03:39:58.495Z,0
2016-10-28T03:40:30.825Z,0
2016-10-28T03:41:03.164Z,0
2016-10-28T03:41:35.490Z,0
2016-10-28T03:42:07.822Z,0
2016-10-28T03:42:40.157Z,0
2016-10-28T03:43:12.480Z,0
2016-10-28T03:43:44.788Z,0
2016-10-28T03:44:17.126Z,0
2016-10-28T03:44:49.438Z,0
2016-10-28T03:45:21.785Z,0
2016-10-28T03:45:54.111Z,0
2016-10-28T03:46:26.424Z,0
2016-10-28T03:46:58.767Z,0
2016-10-28T03:47:31.077Z,0
2016-10-28T03:48:03.402Z,0
2016-10-28T03:48:35.727Z,0
2016-10-28T03:49:08.048Z,0
2016-10-28T03:49:40.361Z,0
2016-10-28T03:50:12.689Z,0
2016-10-28T03:50:45.077Z,0
2016-10-28T03:51:17.406Z,0
2016-10-28T03:51:49.730Z,0
2016-10-28T03:52:22.046Z,0
2016-10-28T03:52:54.361Z,0
2016-10-28T03:53:26.681Z,0
2016-10-28T03:53:59.003Z,0
2016-10-28T03:54:31.376Z,0
2016-10-28T03:55:03.701Z,0
2016-10-28T03:55:36.006Z,0
2016-10-28T03:56:08.321Z,0
2016-10-28T03:56:40.659Z,0
2016-10-28T03:57:12.994Z,0
2016-10-28T03:57:45.326Z,0
2016-10-28T03:58:17.720Z,0
2016-10-28T03:58:50.074Z,0
2016-10-28T03:59:22.394Z,0
2016-10-28T03:59:54.721Z,0
2016-10-28T04:00:27.053Z,0
2016-10-28T04:00:59.383Z,0
2016-10-28T04:01:31.716Z,0
2016-10-28T04:02:04.073Z,0
2016-10-28T04:02:36.425Z,0
2016-10-28T04:03:08.765Z,0
2016-10-28T04:03:41.089Z,0
2016-10-28T04:04:13.408Z,0
2016-10-28T04:04:45.722Z,0
2016-10-28T04:05:18.066Z,0
2016-10-28T04:05:50.388Z,0
2016-10-28T04:06:22.715Z,0
2016-10-28T04:06:55.043Z,0
2016-10-28T04:07:27.370Z,0
2016-10-28T04:07:59.691Z,0
2016-10-28T04:08:32.032Z,0
2016-10-28T04:09:04.350Z,0
2016-10-28T04:09:36.668Z,0
2016-10-28T04:10:08.987Z,0
2016-10-28T04:10:41.300Z,0
2016-10-28T04:11:13.666Z,0
2016-10-28T04:11:45.999Z,0
2016-10-28T04:12:18.309Z,0
2016-10-28T04:12:50.651Z,0
2016-10-28T04:13:23.025Z,0
2016-10-28T04:13:55.342Z,0
2016-10-28T04:14:27.690Z,0
2016-10-28T04:15:00.011Z,0
2016-10-28T04:15:32.319Z,0
2016-10-28T04:16:04.664Z,0
2016-10-28T04:16:36.997Z,0
2016-10-28T04:17:09.294Z,0
2016-10-28T04:17:41.616Z,0
2016-10-28T04:18:13.933Z,0
2016-10-28T04:18:46.240Z,0
2016-10-28T04:19:18.570Z,0
2016-10-28T04:19:50.873Z,0
2016-10-28T04:20:23.224Z,0
2016-10-28T04:20:55.557Z,0
2016-10-28T04:21:27.872Z,0
2016-10-28T04:22:00.189Z,0
2016-10-28T04:22:32.529Z,0
2016-10-28T04:23:04.852Z,0
2016-10-28T04:23:37.161Z,0
2016-10-28T04:24:09.547Z,0
2016-10-28T04:24:41.889Z,0
2016-10-28T04:25:14.195Z,0
2016-10-28T04:25:46.513Z,0
2016-10-28T04:26:18.856Z,0
2016-10-28T04:26:51.190Z,0
2016-10-28T04:27:23.517Z,0
2016-10-28T04:27:55.831Z,0
2016-10-28T04:28:28.137Z,0
2016-10-28T04:29:00.455Z,0
2016-10-28T04:29:32.773Z,0
2016-10-28T04:30:05.090Z,0
2016-10-28T04:30:37.414Z,0
2016-10-28T04:31:09.756Z,0
2016-10-28T04:31:42.091Z,0
2016-10-28T04:32:14.424Z,0
2016-10-28T04:32:46.746Z,0
2016-10-28T04:33:19.049Z,0
2016-10-28T04:33:51.393Z,0
2016-10-28T04:34:23.700Z,0
2016-10-28T04:34:55.997Z,0
2016-10-28T04:35:28.309Z,0
2016-10-28T04:36:00.627Z,0
2016-10-28T04:36:32.936Z,0
2016-10-28T04:37:05.251Z,0
2016-10-28T04:37:37.562Z,0
2016-10-28T04:38:09.864Z,0
2016-10-28T04:38:42.185Z,0
2016-10-28T04:39:14.522Z,0
2016-10-28T04:39:46.851Z,0
2016-10-28T04:40:19.181Z,0
2016-10-28T04:40:51.525Z,0
2016-10-28T04:41:23.832Z,0
2016-10-28T04:41:56.159Z,0
2016-10-28T04:42:28.519Z,0
2016-10-28T04:43:00.853Z,0
2016-10-28T04:43:33.175Z,0
2016-10-28T04:44:05.491Z,0
2016-10-28T04:44:37.809Z,0
2016-10-28T04:45:10.132Z,0
2016-10-28T04:45:42.464Z,0
2016-10-28T04:46:14.781Z,0
2016-10-28T04:46:47.132Z,0
2016-10-28T04:47:19.444Z,0
2016-10-28T04:47:51.770Z,0
2016-10-28T04:48:24.124Z,0
2016-10-28T04:48:56.453Z,0
2016-10-28T04:49:28.773Z,0
2016-10-28T04:50:01.091Z,0
2016-10-28T04:50:33.405Z,0
2016-10-28T04:51:05.708Z,0
2016-10-28T04:51:38.022Z,0
2016-10-28T04:52:10.330Z,0
2016-10-28T04:52:42.648Z,0
2016-10-28T04:53:14.960Z,0
2016-10-28T04:53:47.302Z,0
2016-10-28T04:54:19.634Z,0
2016-10-28T04:54:51.948Z,0
2016-10-28T04:55:24.258Z,0
2016-10-28T04:55:56.586Z,0
2016-10-28T04:56:28.914Z,0
2016-10-28T04:57:01.297Z,0
2016-10-28T04:57:33.616Z,0
2016-10-28T04:58:05.957Z,0
2016-10-28T04:58:38.282Z,0
2016-10-28T04:59:10.594Z,0
2016-10-28T04:59:42.913Z,0
2016-10-28T05:00:15.276Z,0
2016-10-28T05:00:47.582Z,0
2016-10-28T05:01:19.903Z,0
2016-10-28T05:01:52.225Z,0
2016-10-28T05:02:24.547Z,0
2016-10-28T05:02:56.862Z,0
2016-10-28T05:03:29.192Z,0
2016-10-28T05:04:01.496Z,0
2016-10-28T05:04:33.817Z,0
2016-10-28T05:05:06.172Z,0
2016-10-28T05:05:38.496Z,0
2016-10-28T05:06:10.812Z,0
2016-10-28T05:06:43.135Z,0
2016-10-28T05:07:15.447Z,0
2016-10-28T05:07:47.755Z,0
2016-10-28T05:08:20.091Z,0
2016-10-28T05:08:52.402Z,0
2016-10-28T05:09:24.761Z,0
2016-10-28T05:09:57.093Z,0
2016-10-28T05:10:29.417Z,0
2016-10-28T05:11:01.770Z,0
2016-10-28T05:11:34.095Z,0
2016-10-28T05:12:06.441Z,0
2016-10-28T05:12:38.754Z,0
2016-10-28T05:13:11.081Z,0
2016-10-28T05:13:43.414Z,0
2016-10-28T05:14:15.723Z,0
2016-10-28T05:14:48.043Z,0
2016-10-28T05:15:20.369Z,0
2016-10-28T05:15:52.688Z,0
2016-10-28T05:16:25.000Z,0
2016-10-28T05:16:57.328Z,0
2016-10-28T05:17:29.629Z,0
2016-10-28T05:18:01.957Z,0
2016-10-28T05:18:34.288Z,0
2016-10-28T05:19:06.598Z,0
2016-10-28T05:19:38.967Z,0
2016-10-28T05:20:11.292Z,0
2016-10-28T05:20:43.625Z,0
2016-10-28T05:21:15.984Z,0
2016-10-28T05:21:48.314Z,0
2016-10-28T05:22:20.643Z,0
2016-10-28T05:22:52.989Z,0
2016-10-28T05:23:25.325Z,0
2016-10-28T05:23:57.661Z,0
2016-10-28T05:24:30.152Z,0
2016-10-28T05:25:03.902Z,0
2016-10-28T05:25:36.732Z,0
2016-10-28T05:26:09.128Z,0
2016-10-28T05:26:41.447Z,0
2016-10-28T05:27:13.775Z,0
2016-10-28T05:27:46.101Z,0
2016-10-28T05:28:18.431Z,0
2016-10-28T05:28:50.739Z,0
2016-10-28T05:29:23.074Z,0
2016-10-28T05:29:55.439Z,0
2016-10-28T05:30:27.763Z,0
2016-10-28T05:31:00.292Z,0
2016-10-28T05:31:32.850Z,0
2016-10-28T05:32:05.204Z,0
2016-10-28T05:32:37.532Z,0
2016-10-28T05:33:09.856Z,0
2016-10-28T05:33:42.175Z,0
2016-10-28T05:34:14.500Z,0
2016-10-28T05:34:46.822Z,0
2016-10-28T05:35:19.135Z,0
2016-10-28T05:35:51.444Z,0
2016-10-28T05:36:24.794Z,0
2016-10-28T05:36:57.099Z,0
2016-10-28T05:37:29.413Z,0
2016-10-28T05:38:01.783Z,0
2016-10-28T05:38:34.133Z,0
2016-10-28T05:39:06.461Z,0
2016-10-28T05:39:38.782Z,0
2016-10-28T05:40:11.892Z,0
2016-10-28T05:40:44.622Z,0
2016-10-28T05:41:16.949Z,0
2016-10-28T05:41:49.619Z,0
2016-10-28T05:42:22.973Z,0
2016-10-28T05:42:58.105Z,0
2016-10-28T05:43:30.516Z,0
2016-10-28T05:44:03.876Z,0
2016-10-28T05:44:37.549Z,0
2016-10-28T05:45:11.386Z,0
2016-10-28T05:45:45.351Z,0
2016-10-28T05:46:19.899Z,0
2016-10-28T05:46:53.301Z,0
2016-10-28T05:47:26.744Z,0
2016-10-28T05:48:00.405Z,0
2016-10-28T05:48:34.047Z,0
2016-10-28T05:49:06.776Z,0
2016-10-28T05:49:39.144Z,0
2016-10-28T05:50:11.469Z,0
2016-10-28T05:50:43.810Z,0
2016-10-28T05:51:16.998Z,0
2016-10-28T05:51:49.616Z,0
2016-10-28T05:52:22.175Z,0
2016-10-28T05:52:54.760Z,0
2016-10-28T05:53:27.348Z,0
2016-10-28T05:53:59.841Z,0
2016-10-28T05:54:33.554Z,0
2016-10-28T05:55:06.142Z,0
2016-10-28T05:55:38.764Z,0
2016-10-28T05:56:11.903Z,0
2016-10-28T05:56:44.324Z,0
2016-10-28T05:57:16.639Z,0
2016-10-28T05:57:48.946Z,0
2016-10-28T05:58:21.266Z,0
2016-10-28T05:58:53.581Z,0
2016-10-28T05:59:25.919Z,0
2016-10-28T05:59:58.241Z,0
2016-10-28T06:00:31.330Z,0
2016-10-28T06:01:03.996Z,0
2016-10-28T06:01:36.368Z,4
2016-10-28T06:02:08.864Z,4
2016-10-28T06:02:41.187Z,4
2016-10-28T06:03:13.514Z,4
2016-10-28T06:03:45.852Z,4
2016-10-28T06:04:18.204Z,4
2016-10-28T06:04:50.515Z,4
2016-10-28T06:05:22.850Z,4
2016-10-28T06:05:55.203Z,4
2016-10-28T06:06:27.614Z,8
2016-10-28T06:06:59.941Z,8
2016-10-28T06:07:33.911Z,8
2016-10-28T06:08:06.407Z,8
2016-10-28T06:08:38.742Z,8
2016-10-28T06:09:11.834Z,8
2016-10-28T06:09:44.176Z,8
2016-10-28T06:10:16.505Z,8
2016-10-28T06:10:48.826Z,8
2016-10-28T06:11:21.160Z,8
2016-10-28T06:12:19.926Z,12
2016-10-28T06:12:52.354Z,12
2016-10-28T06:13:24.667Z,12
2016-10-28T06:13:57.002Z,16
2016-10-28T06:14:32.365Z,12
2016-10-28T06:15:05.378Z,16
2016-10-28T06:15:37.695Z,16
2016-10-28T06:16:10.105Z,16
2016-10-28T06:16:42.419Z,16
2016-10-28T06:17:14.831Z,12
2016-10-28T06:17:47.163Z,12
2016-10-28T06:18:21.405Z,12
2016-10-28T06:18:54.897Z,8
2016-10-28T06:19:27.676Z,12
2016-10-28T06:20:00.009Z,12
2016-10-28T06:20:32.346Z,12
2016-10-28T06:21:04.692Z,12
2016-10-28T06:21:37.110Z,12
2016-10-28T06:22:09.769Z,16
2016-10-28T06:22:43.237Z,16
2016-10-28T06:23:16.604Z,16
2016-10-28T06:23:48.979Z,20
2016-10-28T06:24:24.054Z,24
2016-10-28T06:24:56.522Z,24
2016-10-28T06:25:31.939Z,24
2016-10-28T06:26:04.469Z,24
2016-10-28T06:26:39.366Z,24
2016-10-28T06:27:16.148Z,24
2016-10-28T06:27:52.426Z,24
2016-10-28T06:28:26.896Z,24
2016-10-28T06:29:00.913Z,28
2016-10-28T06:29:35.918Z,28
2016-10-28T06:30:09.779Z,32
2016-10-28T06:30:43.928Z,28
2016-10-28T06:31:18.309Z,32
2016-10-28T06:31:56.427Z,32
2016-10-28T06:32:30.809Z,32
2016-10-28T06:33:08.415Z,36
2016-10-28T06:33:44.410Z,24
2016-10-28T06:34:19.424Z,28
2016-10-28T06:34:54.214Z,28
2016-10-28T06:35:33.423Z,28
2016-10-28T06:36:08.498Z,32
2016-10-28T06:36:41.909Z,32
2016-10-28T06:37:15.848Z,36
2016-10-28T06:37:49.624Z,32
2016-10-28T06:38:23.910Z,36
2016-10-28T06:38:58.914Z,36
2016-10-28T06:39:32.303Z,36
2016-10-28T06:40:04.776Z,32
2016-10-28T06:40:37.950Z,36
2016-10-28T06:41:13.505Z,40
2016-10-28T06:41:47.918Z,44
2016-10-28T06:42:23.933Z,44
2016-10-28T06:42:59.924Z,44
2016-10-28T06:43:38.147Z,48
2016-10-28T06:44:13.070Z,56
2016-10-28T06:44:49.443Z,68
2016-10-28T06:45:28.619Z,72
2016-10-28T06:46:01.411Z,72
2016-10-28T06:46:33.982Z,80
2016-10-28T06:47:10.081Z,76
2016-10-28T06:47:43.321Z,72
2016-10-28T06:48:17.537Z,72
2016-10-28T06:48:50.513Z,64
2016-10-28T06:49:23.109Z,68
2016-10-28T06:49:55.508Z,72
2016-10-28T06:50:27.875Z,76
2016-10-28T06:51:00.838Z,84
2016-10-28T06:51:33.877Z,88
2016-10-28T06:52:06.872Z,96
2016-10-28T06:52:39.803Z,92
2016-10-28T06:53:12.123Z,80
2016-10-28T06:53:44.644Z,76
2016-10-28T06:54:17.018Z,76
2016-10-28T06:54:49.350Z,72
2016-10-28T06:55:22.928Z,76
2016-10-28T06:55:55.277Z,80
2016-10-28T06:56:27.599Z,80
2016-10-28T06:57:00.921Z,84
2016-10-28T06:57:34.830Z,88
2016-10-28T06:58:07.155Z,88
2016-10-28T06:58:40.897Z,96
2016-10-28T06:59:13.354Z,104
2016-10-28T06:59:46.941Z,100
2016-10-28T07:00:19.278Z,108
2016-10-28T07:00:51.607Z,104
2016-10-28T07:01:23.938Z,112
2016-10-28T07:01:57.498Z,124
2016-10-28T07:02:30.123Z,128
2016-10-28T07:03:03.459Z,136
2016-10-28T07:03:35.835Z,140
2016-10-28T07:04:08.347Z,144
2016-10-28T07:04:40.766Z,132
2016-10-28T07:05:13.273Z,128
2016-10-28T07:05:46.353Z,128
2016-10-28T07:07:39.457Z,132
2016-10-28T07:08:19.674Z,140
2016-10-28T07:08:53.826Z,144
2016-10-28T07:09:26.206Z,140
2016-10-28T07:09:59.548Z,136
2016-10-28T07:10:33.864Z,136
2016-10-28T07:11:06.271Z,140
2016-10-28T07:11:40.181Z,140
2016-10-28T07:12:12.528Z,132
2016-10-28T07:12:48.144Z,124
2016-10-28T07:13:22.436Z,116
2016-10-28T07:13:54.917Z,120
2016-10-28T07:14:27.539Z,120
2016-10-28T07:15:01.370Z,124
2016-10-28T07:15:34.422Z,128
2016-10-28T07:16:06.758Z,128
2016-10-28T07:16:41.391Z,132
2016-10-28T07:17:15.170Z,132
2016-10-28T07:17:47.521Z,144
2016-10-28T07:18:21.306Z,156
2016-10-28T07:18:53.632Z,164
2016-10-28T07:19:26.914Z,172
2016-10-28T07:20:01.372Z,180
2016-10-28T07:20:34.945Z,192
2016-10-28T07:21:08.298Z,200
2016-10-28T07:21:42.246Z,200
2016-10-28T07:22:14.848Z,212
2016-10-28T07:22:47.448Z,208
2016-10-28T07:23:19.813Z,208
2016-10-28T07:23:52.156Z,200
2016-10-28T07:24:24.900Z,212
2016-10-28T07:24:57.491Z,212
2016-10-28T07:25:29.831Z,224
2016-10-28T07:26:02.163Z,232
2016-10-28T07:26:34.493Z,244
2016-10-28T07:27:06.827Z,248
2016-10-28T07:27:39.158Z,244
2016-10-28T07:28:11.494Z,232
2016-10-28T07:28:43.836Z,232
2016-10-28T07:29:16.179Z,240
2016-10-28T07:29:48.501Z,272
2016-10-28T07:30:20.824Z,288
2016-10-28T07:30:53.191Z,292
2016-10-28T07:31:25.526Z,320
2016-10-28T07:31:57.840Z,344
2016-10-28T07:32:30.194Z,372
2016-10-28T07:33:03.936Z,380
2016-10-28T07:33:36.268Z,384
2016-10-28T07:34:08.614Z,408
2016-10-28T07:34:40.964Z,432
2016-10-28T07:35:13.303Z,468
2016-10-28T07:35:46.420Z,508
2016-10-28T07:36:18.745Z,536
2016-10-28T07:36:51.058Z,556
2016-10-28T07:37:23.496Z,600
2016-10-28T07:37:55.838Z,608
2016-10-28T07:38:28.193Z,584
2016-10-28T07:39:00.577Z,596
2016-10-28T07:39:32.908Z,596
2016-10-28T07:40:05.217Z,604
2016-10-28T07:40:37.544Z,600
2016-10-28T07:41:09.865Z,628
2016-10-28T07:41:42.194Z,628
2016-10-28T07:42:14.510Z,584
2016-10-28T07:42:46.836Z,548
2016-10-28T07:43:19.164Z,504
2016-10-28T07:43:51.491Z,504
2016-10-28T07:44:23.831Z,500
2016-10-28T07:44:56.146Z,476
2016-10-28T07:45:29.317Z,464
2016-10-28T07:46:01.733Z,504
2016-10-28T07:46:34.060Z,600
2016-10-28T07:47:06.379Z,592
2016-10-28T07:47:38.701Z,544
2016-10-28T07:48:11.046Z,552
2016-10-28T07:48:43.354Z,548
2016-10-28T07:49:16.815Z,500
2016-10-28T07:49:49.156Z,456
2016-10-28T07:50:21.527Z,464
2016-10-28T07:50:53.857Z,460
2016-10-28T07:51:26.185Z,456
2016-10-28T07:51:58.516Z,444
2016-10-28T07:52:30.836Z,408
2016-10-28T07:53:03.200Z,360
2016-10-28T07:53:35.514Z,336
2016-10-28T07:54:07.824Z,328
2016-10-28T07:54:40.150Z,312
2016-10-28T07:55:12.492Z,300
2016-10-28T07:55:44.813Z,296
2016-10-28T07:56:18.042Z,272
2016-10-28T07:56:52.949Z,272
2016-10-28T07:57:25.398Z,268